Time;durP1;ratioP1;P1;durP2;ratioP2;P2;SDS_P1;SDS_P2;PMS_P1;PMS_P2;Temp;Humidity;BMP_temperature;BMP_pressure;BME280_temperature;BME280_humidity;BME280_pressure;Samples;Min_cycle;Max_cycle;Signal;HPM_P1;HPM_P2
2022/11/09 00:00:39;;;;;;;2.55;0.73;;;11.70;99.90;;;;;;5027442;28;20049;-82
2022/11/09 00:03:06;;;;;;;1.30;0.57;;;11.60;99.90;;;;;;5042742;28;20441;-82
2022/11/09 00:05:33;;;;;;;1.98;0.70;;;11.60;99.90;;;;;;5007290;28;20053;-82
2022/11/09 00:08:00;;;;;;;1.58;0.80;;;11.60;99.90;;;;;;5023455;28;20231;-82
2022/11/09 00:10:27;;;;;;;2.10;0.85;;;11.60;99.90;;;;;;5025010;28;20053;-82
2022/11/09 00:12:54;;;;;;;1.33;0.80;;;11.60;99.90;;;;;;5043437;28;20049;-81
2022/11/09 00:15:21;;;;;;;2.88;0.80;;;11.60;99.90;;;;;;5041331;28;20060;-82
2022/11/09 00:17:48;;;;;;;2.20;0.70;;;11.60;99.90;;;;;;5010719;28;20142;-82
2022/11/09 00:20:15;;;;;;;1.70;0.65;;;11.60;99.90;;;;;;5044492;28;20088;-81
2022/11/09 00:22:41;;;;;;;1.75;0.65;;;11.60;99.90;;;;;;5028639;28;20056;-82
2022/11/09 00:25:08;;;;;;;2.10;0.85;;;11.60;99.90;;;;;;5029407;28;20422;-84
2022/11/09 00:27:35;;;;;;;3.13;1.02;;;11.60;99.90;;;;;;5031176;28;20055;-82
2022/11/09 00:30:03;;;;;;;1.92;0.80;;;11.70;99.90;;;;;;5028745;28;20045;-82
2022/11/09 00:32:30;;;;;;;1.00;0.60;;;11.60;99.90;;;;;;5023277;28;20041;-82
2022/11/09 00:34:57;;;;;;;1.05;0.52;;;11.60;99.90;;;;;;5020970;28;20505;-82
2022/11/09 00:37:23;;;;;;;2.50;0.70;;;11.60;99.90;;;;;;5039748;28;20053;-82
2022/11/09 00:39:50;;;;;;;3.13;0.60;;;11.60;99.90;;;;;;5039401;28;20053;-81
2022/11/09 00:42:17;;;;;;;0.80;0.57;;;11.60;99.90;;;;;;5025991;28;20050;-81
2022/11/09 00:44:44;;;;;;;2.58;0.80;;;11.50;99.90;;;;;;5027167;28;20503;-81
2022/11/09 00:47:11;;;;;;;1.38;0.60;;;11.50;99.90;;;;;;5005904;28;20049;-82
2022/11/09 00:49:38;;;;;;;2.22;0.75;;;11.40;99.90;;;;;;5022130;28;20084;-81
2022/11/09 00:52:04;;;;;;;1.38;0.57;;;11.40;99.90;;;;;;5037343;28;20049;-80
2022/11/09 00:54:31;;;;;;;1.63;0.65;;;11.40;99.90;;;;;;5042149;28;20444;-82
2022/11/09 00:56:58;;;;;;;3.72;0.90;;;11.40;99.90;;;;;;5042661;28;20646;-82
2022/11/09 00:59:25;;;;;;;3.33;1.23;;;11.40;99.90;;;;;;5044108;28;20083;-81
2022/11/09 01:01:52;;;;;;;3.67;0.82;;;11.40;99.90;;;;;;5004207;28;20045;-82
2022/11/09 01:04:19;;;;;;;1.40;0.65;;;11.50;99.90;;;;;;5018756;28;20053;-81
2022/11/09 01:06:46;;;;;;;2.10;0.77;;;11.50;99.90;;;;;;5025985;28;20048;-82
2022/11/09 01:09:12;;;;;;;1.67;0.60;;;11.50;99.90;;;;;;5028961;28;20053;-82
2022/11/09 01:11:39;;;;;;;1.17;0.65;;;11.50;99.90;;;;;;5025182;28;20072;-81
2022/11/09 01:14:07;;;;;;;2.45;0.93;;;11.50;99.90;;;;;;5031295;28;20056;-82
2022/11/09 01:16:35;;;;;;;1.88;0.82;;;11.50;99.90;;;;;;5027524;28;20063;-81
2022/11/09 01:19:03;;;;;;;1.60;0.60;;;11.50;99.90;;;;;;5028757;28;20495;-82
2022/11/09 01:21:30;;;;;;;2.50;0.68;;;11.50;99.90;;;;;;5028554;28;20052;-81
2022/11/09 01:23:57;;;;;;;0.82;0.47;;;11.50;99.90;;;;;;5044713;28;20045;-81
2022/11/09 01:26:24;;;;;;;3.25;1.02;;;11.50;99.90;;;;;;5028005;28;20491;-81
2022/11/09 01:28:51;;;;;;;2.13;0.75;;;11.40;99.90;;;;;;5028432;28;20049;-82
2022/11/09 01:31:19;;;;;;;2.33;0.80;;;11.40;99.90;;;;;;5042200;28;20053;-82
2022/11/09 01:33:46;;;;;;;2.00;0.45;;;11.40;99.90;;;;;;5027220;28;20049;-82
2022/11/09 01:36:15;;;;;;;3.03;0.75;;;11.40;99.90;;;;;;5027692;28;20132;-81
2022/11/09 01:38:42;;;;;;;0.73;0.57;;;11.40;99.90;;;;;;5011890;28;20045;-83
2022/11/09 01:41:12;;;;;;;2.50;1.00;;;11.40;99.90;;;;;;5024098;28;20064;-82
2022/11/09 01:43:39;;;;;;;1.65;0.40;;;11.40;99.90;;;;;;5012249;28;20053;-82
2022/11/09 01:46:19;;;;;;;3.00;0.70;;;11.40;99.90;;;;;;5026922;28;20052;-83
2022/11/09 01:48:54;;;;;;;1.48;0.82;;;11.40;99.90;;;;;;5044648;28;20041;-81
2022/11/09 01:51:25;;;;;;;1.38;0.57;;;11.40;99.90;;;;;;5020904;28;20046;-81
2022/11/09 01:53:57;;;;;;;2.85;0.82;;;11.40;99.90;;;;;;5033970;28;20067;-81
2022/11/09 01:56:24;;;;;;;1.30;0.60;;;11.50;99.90;;;;;;5011596;28;20139;-83
2022/11/09 01:58:59;;;;;;;1.17;0.60;;;11.50;99.90;;;;;;5044821;28;20084;-82
2022/11/09 02:01:26;;;;;;;0.50;0.32;;;11.50;99.90;;;;;;5011722;28;20170;-83
2022/11/09 02:04:00;;;;;;;1.95;0.63;;;11.50;99.90;;;;;;5024789;28;20384;-82
2022/11/09 02:06:28;;;;;;;1.92;0.95;;;11.50;99.90;;;;;;5025258;28;20115;-83
2022/11/09 02:08:57;;;;;;;2.60;1.00;;;11.40;99.90;;;;;;5024917;28;20042;-81
2022/11/09 02:11:24;;;;;;;4.22;0.98;;;11.40;99.90;;;;;;5024588;28;20076;-83
2022/11/09 02:13:54;;;;;;;0.95;0.57;;;11.40;99.90;;;;;;5025291;28;20143;-82
2022/11/09 02:16:21;;;;;;;1.80;0.68;;;11.30;99.90;;;;;;5022681;28;20057;-82
2022/11/09 02:18:53;;;;;;;1.05;0.60;;;11.30;99.90;;;;;;5024266;28;20049;-83
2022/11/09 02:21:21;;;;;;;1.88;0.60;;;11.30;99.90;;;;;;5028160;28;20049;-82
2022/11/09 02:23:48;;;;;;;1.60;0.60;;;11.20;99.90;;;;;;5028250;28;20400;-82
2022/11/09 02:26:37;;;;;;;2.17;0.88;;;11.20;99.90;;;;;;5012043;28;20065;-83
2022/11/09 02:29:05;;;;;;;0.60;0.40;;;11.20;99.90;;;;;;5030164;28;20045;-83
2022/11/09 02:31:34;;;;;;;2.47;0.82;;;11.20;99.90;;;;;;5026266;28;20045;-83
2022/11/09 02:34:30;;;;;;;1.67;0.70;;;11.20;99.90;;;;;;5022384;28;20045;-82
2022/11/09 02:36:57;;;;;;;1.67;0.60;;;11.30;99.90;;;;;;4997745;28;20183;-82
2022/11/09 02:39:25;;;;;;;1.73;0.55;;;11.30;99.90;;;;;;5009395;28;20053;-82
2022/11/09 02:42:07;;;;;;;2.80;0.70;;;11.30;99.90;;;;;;5020745;28;20053;-82
2022/11/09 02:44:40;;;;;;;1.75;0.80;;;11.40;99.90;;;;;;5029194;28;20053;-82
2022/11/09 02:47:07;;;;;;;0.90;0.43;;;11.40;99.90;;;;;;5028113;28;20072;-82
2022/11/09 02:49:35;;;;;;;2.40;1.05;;;11.40;99.90;;;;;;5028139;28;20065;-82
2022/11/09 02:52:01;;;;;;;1.50;0.88;;;11.40;99.90;;;;;;5028559;28;20081;-82
2022/11/09 02:54:28;;;;;;;1.90;0.90;;;11.50;99.90;;;;;;5031582;28;20049;-82
2022/11/09 02:56:56;;;;;;;2.78;0.82;;;11.50;99.90;;;;;;5031440;28;20049;-82
2022/11/09 02:59:22;;;;;;;2.17;0.52;;;11.50;99.90;;;;;;5049328;28;20675;-82
2022/11/09 03:01:49;;;;;;;2.22;0.88;;;11.50;99.90;;;;;;5030160;28;20063;-82
2022/11/09 03:04:16;;;;;;;2.55;0.80;;;11.50;99.90;;;;;;5027747;28;20131;-81
2022/11/09 03:06:43;;;;;;;1.98;0.77;;;11.60;99.90;;;;;;5027640;28;20050;-82
2022/11/09 03:09:10;;;;;;;1.48;0.75;;;11.60;99.90;;;;;;5027839;28;20049;-83
2022/11/09 03:11:38;;;;;;;1.92;1.00;;;11.60;99.90;;;;;;5027711;28;20227;-82
2022/11/09 03:14:06;;;;;;;1.50;0.82;;;11.70;99.90;;;;;;5025067;28;20107;-82
2022/11/09 03:16:32;;;;;;;1.15;0.50;;;11.70;99.90;;;;;;5026344;28;20056;-82
2022/11/09 03:18:59;;;;;;;0.85;0.57;;;11.70;99.90;;;;;;5011327;28;20445;-82
2022/11/09 03:21:26;;;;;;;1.27;0.50;;;11.70;99.90;;;;;;5027462;28;20067;-82
2022/11/09 03:23:53;;;;;;;1.95;0.60;;;11.70;99.90;;;;;;5042449;28;20049;-82
2022/11/09 03:26:20;;;;;;;1.85;0.50;;;11.80;99.90;;;;;;5014654;28;20388;-82
2022/11/09 03:28:47;;;;;;;0.45;0.40;;;11.80;99.90;;;;;;5030879;28;20043;-82
2022/11/09 03:31:15;;;;;;;1.02;0.43;;;11.80;99.90;;;;;;5013340;28;20065;-83
2022/11/09 03:33:42;;;;;;;2.25;0.75;;;11.80;99.90;;;;;;5047377;28;20056;-82
2022/11/09 03:36:09;;;;;;;3.38;0.75;;;11.70;99.90;;;;;;5047393;28;20053;-83
2022/11/09 03:38:36;;;;;;;1.02;0.52;;;11.60;99.90;;;;;;5031402;28;20460;-82
2022/11/09 03:41:03;;;;;;;2.78;0.80;;;11.60;99.90;;;;;;5014563;28;20084;-83
2022/11/09 03:43:29;;;;;;;2.33;0.80;;;11.50;99.90;;;;;;5030688;28;20053;-83
2022/11/09 03:45:56;;;;;;;0.93;0.50;;;11.50;99.90;;;;;;5045817;28;20103;-82
2022/11/09 03:48:23;;;;;;;2.50;1.05;;;11.40;99.90;;;;;;5014447;28;20064;-82
2022/11/09 03:50:50;;;;;;;1.27;0.50;;;11.40;99.90;;;;;;5014240;28;20063;-82
2022/11/09 03:53:17;;;;;;;1.40;0.50;;;11.30;99.90;;;;;;5011057;28;20045;-82
2022/11/09 03:55:45;;;;;;;1.23;0.57;;;11.20;99.90;;;;;;5025782;28;20129;-82
2022/11/09 03:58:12;;;;;;;1.38;0.70;;;11.20;99.90;;;;;;5010813;28;20615;-82
2022/11/09 04:00:39;;;;;;;3.13;0.52;;;11.20;99.90;;;;;;5009163;28;20064;-82
2022/11/09 04:03:06;;;;;;;0.60;0.50;;;11.10;99.90;;;;;;5018533;28;20045;-83
2022/11/09 04:05:33;;;;;;;1.63;0.65;;;11.10;99.90;;;;;;5013727;28;20052;-82
2022/11/09 04:07:59;;;;;;;1.00;0.50;;;11.10;99.90;;;;;;5014057;28;20067;-82
2022/11/09 04:10:26;;;;;;;1.52;0.38;;;11.10;99.90;;;;;;5046759;28;20526;-82
2022/11/09 04:12:53;;;;;;;1.20;0.60;;;11.10;99.90;;;;;;5046525;28;20451;-82
2022/11/09 04:15:23;;;;;;;1.42;0.52;;;11.10;99.90;;;;;;5013599;28;20048;-82
2022/11/09 04:17:56;;;;;;;1.25;0.35;;;11.10;99.90;;;;;;5029878;28;20132;-82
2022/11/09 04:20:23;;;;;;;;;;;11.10;99.90;;;;;;5030871;28;20049;-82
2022/11/09 04:22:58;;;;;;;2.35;0.95;;;11.20;99.90;;;;;;5046539;28;20376;-81
2022/11/09 04:25:25;;;;;;;1.50;0.50;;;11.20;99.90;;;;;;5013965;28;20122;-82
2022/11/09 04:27:56;;;;;;;1.67;0.55;;;11.20;99.90;;;;;;5030322;28;20526;-81
2022/11/09 04:30:23;;;;;;;1.65;0.50;;;11.20;99.90;;;;;;5046423;28;20076;-82
2022/11/09 04:32:49;;;;;;;0.68;0.40;;;11.20;99.90;;;;;;5029289;28;20049;-82
2022/11/09 04:35:17;;;;;;;1.33;0.57;;;11.20;99.90;;;;;;5029744;28;20132;-82
2022/11/09 04:37:51;;;;;;;2.45;0.60;;;11.20;99.90;;;;;;5047698;28;20412;-82
2022/11/09 04:40:19;;;;;;;0.93;0.45;;;11.20;99.90;;;;;;5030743;28;20071;-82
2022/11/09 04:42:46;;;;;;;2.22;0.40;;;11.20;99.90;;;;;;5041496;28;20049;-82
2022/11/09 04:45:13;;;;;;;0.60;0.47;;;11.20;99.90;;;;;;5025120;28;20741;-82
2022/11/09 04:47:40;;;;;;;1.40;0.40;;;11.20;99.90;;;;;;5026213;28;20050;-82
2022/11/09 04:50:09;;;;;;;0.95;0.40;;;11.30;99.90;;;;;;5025574;28;20049;-83
2022/11/09 04:52:36;;;;;;;1.65;0.47;;;11.30;99.90;;;;;;5013111;28;20128;-82
2022/11/09 04:55:03;;;;;;;1.13;0.50;;;11.30;99.90;;;;;;5029192;28;20053;-82
2022/11/09 04:57:30;;;;;;;1.25;0.70;;;11.40;99.90;;;;;;5013096;28;20107;-82
2022/11/09 04:59:57;;;;;;;0.65;0.38;;;11.40;99.90;;;;;;5045466;28;20049;-82
2022/11/09 05:02:24;;;;;;;1.52;0.50;;;11.40;99.90;;;;;;5028914;28;20063;-82
2022/11/09 05:04:51;;;;;;;1.02;0.60;;;11.40;99.90;;;;;;5012582;28;20492;-82
2022/11/09 05:07:18;;;;;;;0.68;0.45;;;11.50;99.90;;;;;;5029088;28;20045;-82
2022/11/09 05:09:45;;;;;;;0.80;0.32;;;11.50;99.90;;;;;;5045041;28;20049;-82
2022/11/09 05:12:11;;;;;;;1.02;0.30;;;11.40;99.90;;;;;;5028749;28;20049;-81
2022/11/09 05:14:38;;;;;;;0.40;0.30;;;11.50;99.90;;;;;;5008361;28;20121;-81
2022/11/09 05:17:07;;;;;;;0.60;0.40;;;11.50;99.90;;;;;;5024953;28;20056;-81
2022/11/09 05:19:34;;;;;;;1.85;0.73;;;11.50;99.90;;;;;;5025396;28;20053;-75
2022/11/09 05:23:57;;;;;;;1.25;0.50;;;11.40;99.90;;;;;;5025219;28;20060;-75
2022/11/09 05:24:50;;;;;;;3.08;0.93;;;11.00;99.90;;;;;;5024990;28;20157;-74
2022/11/09 05:27:17;;;;;;;1.90;0.70;;;10.80;99.90;;;;;;5026592;28;20136;-74
2022/11/09 05:29:43;;;;;;;1.38;0.52;;;10.60;99.90;;;;;;5024257;28;20115;-76
2022/11/09 05:32:10;;;;;;;0.35;0.32;;;10.60;99.90;;;;;;5025683;28;20064;-76
2022/11/09 05:34:37;;;;;;;0.73;0.40;;;10.60;99.90;;;;;;5006546;28;20049;-77
2022/11/09 05:37:03;;;;;;;0.40;0.40;;;10.60;99.90;;;;;;5008810;28;20481;-76
2022/11/09 05:39:30;;;;;;;0.75;0.40;;;10.60;99.90;;;;;;5024914;28;20049;-76
2022/11/09 05:41:57;;;;;;;1.17;0.50;;;10.60;99.90;;;;;;5026667;28;20049;-76
2022/11/09 05:44:24;;;;;;;0.85;0.45;;;10.50;99.90;;;;;;5041608;28;20053;-77
2022/11/09 05:46:51;;;;;;;0.73;0.30;;;10.50;99.90;;;;;;5045152;28;20071;-77
2022/11/09 05:49:18;;;;;;;0.90;0.47;;;10.50;99.90;;;;;;5028674;28;20054;-77
2022/11/09 05:51:44;;;;;;;0.28;0.20;;;10.40;99.90;;;;;;5024138;28;20049;-77
2022/11/09 05:54:11;;;;;;;0.63;0.30;;;10.40;99.90;;;;;;5038315;28;20045;-77
2022/11/09 05:56:38;;;;;;;0.57;0.30;;;10.40;99.90;;;;;;5042350;28;20057;-78
2022/11/09 05:59:05;;;;;;;1.10;0.50;;;10.40;99.90;;;;;;5026136;28;20041;-78
2022/11/09 06:01:31;;;;;;;0.68;0.38;;;10.40;99.90;;;;;;5025580;28;20128;-78
2022/11/09 06:03:58;;;;;;;0.70;0.30;;;10.30;99.90;;;;;;5010613;28;20056;-78
2022/11/09 06:06:25;;;;;;;0.68;0.28;;;10.30;99.90;;;;;;5000623;28;20080;-78
2022/11/09 06:08:52;;;;;;;0.30;0.10;;;10.30;99.90;;;;;;5026412;28;20054;-77
2022/11/09 06:11:18;;;;;;;0.28;0.28;;;10.30;99.90;;;;;;5034953;28;20163;-78
2022/11/09 06:13:51;;;;;;;0.30;0.25;;;10.20;99.90;;;;;;5032235;28;20048;-77
2022/11/09 06:16:17;;;;;;;0.52;0.38;;;10.30;99.90;;;;;;5029988;28;20136;-76
2022/11/09 06:18:44;;;;;;;0.10;0.10;;;10.20;99.90;;;;;;5029822;28;20060;-77
2022/11/09 06:21:11;;;;;;;0.40;0.30;;;10.20;99.90;;;;;;5027461;28;20132;-76
2022/11/09 06:23:38;;;;;;;0.50;0.30;;;10.20;99.90;;;;;;5009149;28;20052;-76
2022/11/09 06:26:08;;;;;;;0.30;0.20;;;10.10;99.90;;;;;;5022677;28;20060;-77
2022/11/09 06:28:36;;;;;;;0.30;0.20;;;10.10;99.90;;;;;;5020777;28;20505;-78
2022/11/09 06:31:04;;;;;;;0.55;0.20;;;10.10;99.90;;;;;;5019485;28;20064;-78
2022/11/09 06:33:32;;;;;;;0.52;0.30;;;10.10;99.90;;;;;;5019204;28;20053;-79
2022/11/09 06:35:59;;;;;;;1.05;0.30;;;10.10;99.90;;;;;;5007403;28;20046;-78
2022/11/09 06:38:26;;;;;;;0.10;0.10;;;10.10;99.90;;;;;;5024638;28;20358;-78
2022/11/09 06:40:54;;;;;;;0.63;0.30;;;10.10;99.90;;;;;;5009787;28;20531;-79
2022/11/09 06:43:21;;;;;;;0.65;0.30;;;10.00;99.90;;;;;;4999066;28;20111;-79
2022/11/09 06:45:49;;;;;;;0.28;0.20;;;10.00;99.90;;;;;;5017837;28;20053;-84
2022/11/09 06:48:15;;;;;;;0.10;0.10;;;10.00;99.90;;;;;;4997242;28;20055;-81
2022/11/09 06:50:42;;;;;;;0.38;0.30;;;10.00;99.90;;;;;;4998027;28;20057;-83
2022/11/09 06:53:11;;;;;;;0.77;0.30;;;10.00;99.90;;;;;;4994672;28;20049;-84
2022/11/09 06:55:38;;;;;;;0.13;0.13;;;9.90;99.90;;;;;;5023853;28;20045;-86
2022/11/09 06:58:11;;;;;;;0.15;0.10;;;9.90;99.90;;;;;;5027809;28;20053;-83
2022/11/09 07:00:38;;;;;;;0.35;0.20;;;9.90;99.90;;;;;;5024027;28;20338;-83
2022/11/09 07:03:05;;;;;;;0.15;0.15;;;9.90;99.90;;;;;;5029794;28;20602;-85
2022/11/09 07:05:31;;;;;;;0.45;0.20;;;9.90;99.90;;;;;;5009213;28;20065;-85
2022/11/09 07:07:58;;;;;;;0.20;0.20;;;9.90;99.90;;;;;;5010161;28;20439;-86
2022/11/09 07:10:25;;;;;;;0.45;0.30;;;10.00;99.90;;;;;;5017044;28;20084;-84
2022/11/09 07:12:52;;;;;;;0.20;0.20;;;10.00;99.90;;;;;;5043011;28;20067;-86
2022/11/09 07:15:18;;;;;;;0.60;0.20;;;10.00;99.90;;;;;;5023121;28;20042;-86
2022/11/09 07:17:45;;;;;;;1.85;0.47;;;10.00;99.90;;;;;;5028434;28;20118;-86
2022/11/09 07:20:13;;;;;;;0.30;0.20;;;10.10;99.90;;;;;;4996879;28;20091;-87
2022/11/09 07:22:40;;;;;;;0.50;0.50;;;10.10;99.90;;;;;;5011781;28;20129;-87
2022/11/09 07:25:11;;;;;;;1.25;0.30;;;10.10;99.90;;;;;;5026829;28;20057;-87
2022/11/09 07:27:38;;;;;;;0.52;0.30;;;10.10;99.90;;;;;;5032712;28;20057;-86
2022/11/09 07:30:06;;;;;;;0.20;0.20;;;10.10;99.90;;;;;;5033949;28;20057;-80
2022/11/09 07:32:35;;;;;;;1.38;0.43;;;10.10;99.90;;;;;;5016500;28;20091;-89
2022/11/09 07:35:21;;;;;;;0.30;0.30;;;10.10;99.90;;;;;;5036354;28;20050;-89
2022/11/09 07:37:48;;;;;;;0.85;0.40;;;10.20;99.90;;;;;;5017539;28;20120;-90
2022/11/09 07:40:15;;;;;;;0.32;0.30;;;10.10;99.90;;;;;;5034950;28;20050;-91
2022/11/09 07:42:42;;;;;;;0.35;0.20;;;10.10;99.90;;;;;;5032747;28;20073;-89
2022/11/09 07:45:10;;;;;;;0.75;0.28;;;10.20;99.90;;;;;;5019404;28;20045;-91
2022/11/09 07:47:37;;;;;;;0.22;0.20;;;10.20;99.90;;;;;;5032240;28;20124;-91
2022/11/09 07:50:04;;;;;;;1.20;0.50;;;10.10;99.90;;;;;;5046365;28;20485;-90
2022/11/09 07:52:31;;;;;;;0.65;0.40;;;10.10;99.90;;;;;;5017502;28;20359;-92
2022/11/09 07:54:58;;;;;;;0.20;0.20;;;10.10;99.90;;;;;;5032095;28;20046;-93
2022/11/09 07:57:25;;;;;;;1.55;0.40;;;10.10;99.90;;;;;;5036376;28;20078;-92
2022/11/09 07:59:52;;;;;;;0.40;0.28;;;10.10;99.90;;;;;;5038003;28;20063;-93
2022/11/09 08:02:19;;;;;;;0.50;0.30;;;10.10;99.90;;;;;;5030076;28;20049;-92
2022/11/09 08:04:46;;;;;;;0.43;0.30;;;10.00;99.90;;;;;;5043464;28;20045;-92
2022/11/09 08:07:13;;;;;;;0.40;0.32;;;10.10;99.90;;;;;;5034589;28;20060;-93
2022/11/09 08:09:40;;;;;;;0.20;0.20;;;10.10;99.90;;;;;;5022916;28;20049;-93
2022/11/09 08:12:07;;;;;;;0.30;0.30;;;10.20;99.90;;;;;;5022528;28;20060;-92
2022/11/09 08:14:33;;;;;;;1.38;0.30;;;10.20;99.90;;;;;;5038655;28;20101;-90
2022/11/09 08:17:00;;;;;;;0.60;0.60;;;10.30;99.90;;;;;;5033585;28;20060;-89
2022/11/09 08:19:27;;;;;;;0.20;0.20;;;10.30;99.90;;;;;;5027849;28;20510;-89
2022/11/09 08:21:56;;;;;;;0.82;0.40;;;10.40;99.90;;;;;;5015295;28;20063;-89
2022/11/09 08:24:23;;;;;;;0.82;0.30;;;10.40;99.90;;;;;;5034068;28;20446;-90
2022/11/09 08:26:50;;;;;;;0.25;0.25;;;10.40;99.90;;;;;;5030240;28;20497;-89
2022/11/09 08:29:16;;;;;;;0.98;0.43;;;10.50;99.90;;;;;;5028758;28;20057;-90
2022/11/09 08:31:43;;;;;;;0.75;0.40;;;10.60;99.90;;;;;;5032757;28;20045;-88
2022/11/09 08:34:13;;;;;;;1.38;0.45;;;10.70;99.90;;;;;;5029026;28;20100;-90
2022/11/09 08:36:40;;;;;;;0.55;0.30;;;10.70;99.90;;;;;;4997129;28;20053;-88
2022/11/09 08:39:07;;;;;;;3.65;0.75;;;10.80;99.90;;;;;;5021849;28;20050;-89
2022/11/09 08:41:34;;;;;;;1.40;0.50;;;10.80;99.90;;;;;;5011943;28;20049;-89
2022/11/09 08:44:00;;;;;;;0.43;0.30;;;10.80;99.90;;;;;;5029297;28;20147;-90
2022/11/09 08:46:27;;;;;;;0.77;0.47;;;10.80;99.90;;;;;;5015491;28;20080;-79
2022/11/09 08:48:54;;;;;;;0.43;0.30;;;10.80;99.90;;;;;;5011418;28;20052;-90
2022/11/09 08:51:21;;;;;;;2.08;0.60;;;10.80;99.90;;;;;;5029270;28;20052;-89
2022/11/09 08:53:47;;;;;;;2.20;0.60;;;10.80;99.90;;;;;;5009901;28;20145;-89
2022/11/09 08:56:17;;;;;;;1.15;0.60;;;10.80;99.90;;;;;;5040293;28;20044;-87
2022/11/09 08:58:44;;;;;;;2.30;0.82;;;10.80;99.90;;;;;;5044503;28;20067;-89
2022/11/09 09:01:11;;;;;;;0.77;0.30;;;10.80;99.90;;;;;;5038254;28;20063;-89
2022/11/09 09:03:42;;;;;;;0.60;0.30;;;10.90;99.90;;;;;;5029711;28;20049;-91
2022/11/09 09:06:09;;;;;;;0.88;0.50;;;11.00;99.90;;;;;;4990178;28;20060;-77
2022/11/09 09:08:37;;;;;;;0.55;0.47;;;11.10;99.90;;;;;;5029830;28;20048;-77
2022/11/09 09:11:04;;;;;;;1.58;0.57;;;11.20;99.90;;;;;;5041516;28;20053;-76
2022/11/09 09:13:31;;;;;;;0.60;0.30;;;11.20;99.90;;;;;;5018166;28;20048;-78
2022/11/09 09:15:58;;;;;;;1.08;0.35;;;11.30;99.90;;;;;;4993856;28;20048;-77
2022/11/09 09:18:24;;;;;;;0.60;0.47;;;11.40;99.90;;;;;;5012147;28;20048;-77
2022/11/09 09:20:51;;;;;;;1.02;0.40;;;11.40;99.90;;;;;;5009751;28;20044;-78
2022/11/09 09:23:18;;;;;;;0.43;0.40;;;11.40;99.90;;;;;;5033839;28;20053;-77
2022/11/09 09:25:45;;;;;;;0.85;0.38;;;11.40;99.90;;;;;;5011947;28;20045;-78
2022/11/09 09:28:12;;;;;;;0.75;0.40;;;11.40;99.90;;;;;;5029685;28;20287;-78
2022/11/09 09:30:39;;;;;;;0.80;0.43;;;11.40;99.90;;;;;;5037641;28;20083;-77
2022/11/09 09:33:06;;;;;;;0.52;0.40;;;11.40;99.90;;;;;;5030248;28;20052;-77
2022/11/09 09:35:32;;;;;;;0.70;0.40;;;11.40;99.90;;;;;;5019481;28;20059;-78
2022/11/09 09:37:59;;;;;;;1.73;0.60;;;11.40;99.90;;;;;;5011550;28;20508;-76
2022/11/09 09:40:35;;;;;;;1.13;0.40;;;11.40;99.90;;;;;;5027582;28;20470;-77
2022/11/09 09:43:02;;;;;;;0.65;0.47;;;11.40;99.90;;;;;;4999322;28;20500;-82
2022/11/09 09:45:31;;;;;;;0.43;0.40;;;11.40;99.90;;;;;;5014479;28;20378;-85
2022/11/09 09:48:15;;;;;;;1.63;0.57;;;11.50;99.90;;;;;;5018353;28;20532;-85
2022/11/09 09:50:54;;;;;;;1.75;0.57;;;11.50;99.90;;;;;;5014182;28;20057;-85
2022/11/09 09:53:30;;;;;;;1.02;0.50;;;11.60;99.90;;;;;;5018819;28;20212;-84
2022/11/09 09:56:18;;;;;;;0.52;0.30;;;11.60;99.90;;;;;;5001295;28;20475;-84
2022/11/09 09:58:58;;;;;;;2.15;0.40;;;11.60;99.90;;;;;;5021271;28;20472;-86
2022/11/09 10:01:33;;;;;;;1.55;0.55;;;11.70;99.90;;;;;;5020984;28;20056;-85
2022/11/09 10:04:18;;;;;;;1.58;0.80;;;11.80;99.90;;;;;;5018852;28;20072;-84
2022/11/09 10:06:57;;;;;;;2.00;0.70;;;11.80;99.90;;;;;;5025078;28;20150;-84
2022/11/09 10:09:40;;;;;;;1.33;0.50;;;11.90;99.90;;;;;;5018188;28;20048;-85
2022/11/09 10:12:10;;;;;;;1.27;0.60;;;12.00;99.90;;;;;;5027430;28;20060;-83
2022/11/09 10:15:01;;;;;;;4.35;0.80;;;12.00;99.90;;;;;;5020763;28;20507;-83
2022/11/09 10:18:01;;;;;;;3.33;0.80;;;12.10;99.90;;;;;;5039375;28;20120;-82
2022/11/09 10:20:42;;;;;;;1.48;0.60;;;12.10;99.90;;;;;;5040704;28;20503;-82
2022/11/09 10:23:28;;;;;;;1.67;0.60;;;12.10;99.90;;;;;;5019601;28;20060;-83
2022/11/09 10:26:13;;;;;;;1.98;0.55;;;12.10;99.90;;;;;;5020994;28;20075;-82
2022/11/09 10:28:41;;;;;;;1.75;0.55;;;12.10;99.90;;;;;;5019558;28;20128;-83
2022/11/09 10:31:32;;;;;;;0.93;0.30;;;12.10;99.90;;;;;;5024101;28;20498;-83
2022/11/09 10:34:02;;;;;;;2.17;0.80;;;12.20;99.90;;;;;;5023250;28;20079;-84
2022/11/09 10:36:46;;;;;;;2.13;0.90;;;12.20;99.90;;;;;;5007260;28;20045;-83
2022/11/09 10:39:14;;;;;;;1.02;0.50;;;12.20;99.90;;;;;;5022838;28;20353;-83
2022/11/09 10:41:45;;;;;;;2.13;0.68;;;12.30;99.90;;;;;;5023061;28;20041;-84
2022/11/09 10:44:16;;;;;;;1.40;0.90;;;12.30;99.90;;;;;;5020001;28;20450;-83
2022/11/09 10:47:07;;;;;;;1.52;0.55;;;12.30;99.90;;;;;;5018720;28;20053;-84
2022/11/09 10:49:34;;;;;;;2.20;0.50;;;12.40;99.90;;;;;;5022155;28;20049;-84
2022/11/09 10:52:01;;;;;;;1.42;0.55;;;12.50;99.90;;;;;;5023250;28;20350;-84
2022/11/09 10:54:36;;;;;;;1.80;0.45;;;12.50;99.90;;;;;;5027097;28;20068;-84
2022/11/09 10:57:14;;;;;;;1.83;0.70;;;12.60;99.90;;;;;;5020391;28;20100;-84
2022/11/09 10:59:53;;;;;;;1.77;0.68;;;12.70;99.90;;;;;;5004379;28;20111;-84
2022/11/09 11:02:23;;;;;;;1.92;0.52;;;12.80;99.90;;;;;;5020947;28;20041;-85
2022/11/09 11:05:16;;;;;;;0.80;0.57;;;12.90;99.90;;;;;;5043190;28;20083;-84
2022/11/09 11:07:44;;;;;;;1.53;0.77;;;13.00;99.90;;;;;;5037952;28;20453;-85
2022/11/09 11:10:13;;;;;;;1.95;0.70;;;13.00;99.90;;;;;;5020742;28;20056;-85
2022/11/09 11:12:41;;;;;;;2.78;1.00;;;13.10;99.90;;;;;;5038676;28;20052;-85
2022/11/09 11:15:27;;;;;;;1.92;0.65;;;13.10;99.90;;;;;;4996938;28;20116;-84
2022/11/09 11:18:02;;;;;;;2.30;0.60;;;13.10;99.90;;;;;;5024203;28;20057;-84
2022/11/09 11:20:30;;;;;;;2.28;0.95;;;13.10;99.90;;;;;;5018196;28;20476;-83
2022/11/09 11:23:15;;;;;;;1.98;0.57;;;13.20;99.90;;;;;;5023190;28;20422;-84
2022/11/09 11:25:54;;;;;;;1.67;0.70;;;13.20;99.90;;;;;;5009523;28;20080;-85
2022/11/09 11:28:39;;;;;;;1.15;0.60;;;13.40;99.90;;;;;;5034247;28;20057;-85
2022/11/09 11:31:19;;;;;;;1.33;0.90;;;13.50;99.90;;;;;;5023676;28;20249;-85
2022/11/09 11:33:46;;;;;;;1.73;0.43;;;13.60;99.90;;;;;;5014954;28;20460;-85
2022/11/09 11:36:34;;;;;;;2.63;0.88;;;13.60;99.90;;;;;;5005147;28;20041;-85
2022/11/09 11:39:04;;;;;;;3.72;1.10;;;13.50;99.90;;;;;;5018567;28;20136;-85
2022/11/09 11:41:57;;;;;;;2.03;0.63;;;13.60;99.90;;;;;;5024961;28;20599;-85
2022/11/09 11:44:42;;;;;;;1.77;0.70;;;13.60;99.90;;;;;;5033502;28;20304;-85
2022/11/09 11:47:19;;;;;;;1.13;0.60;;;13.70;99.90;;;;;;5031831;28;20045;-85
2022/11/09 11:49:52;;;;;;;1.80;0.60;;;13.80;99.90;;;;;;5018928;28;20067;-85
2022/11/09 11:52:25;;;;;;;1.77;0.73;;;14.00;99.90;;;;;;5027543;28;20151;-85
2022/11/09 11:55:04;;;;;;;0.98;0.60;;;14.20;99.90;;;;;;5032059;28;20084;-84
2022/11/09 11:57:57;;;;;;;1.95;0.88;;;14.30;99.90;;;;;;5029465;28;20045;-85
2022/11/09 12:00:24;;;;;;;0.87;0.67;;;14.30;99.90;;;;;;5027563;28;20429;-85
2022/11/09 12:02:51;;;;;;;2.10;1.00;;;14.40;99.90;;;;;;5012679;28;20639;-84
2022/11/09 12:05:28;;;;;;;1.95;0.70;;;14.50;99.90;;;;;;5030665;28;20083;-84
2022/11/09 12:08:26;;;;;;;1.92;0.88;;;14.60;99.90;;;;;;5039536;28;20053;-84
2022/11/09 12:11:22;;;;;;;2.45;0.85;;;14.70;99.90;;;;;;5024594;28;20057;-85
2022/11/09 12:14:08;;;;;;;1.10;0.63;;;14.90;99.90;;;;;;5015234;28;20053;-85
2022/11/09 12:16:54;;;;;;;2.47;0.70;;;14.90;99.90;;;;;;5040292;28;20136;-84
2022/11/09 12:19:40;;;;;;;2.28;0.85;;;15.10;99.90;;;;;;5025408;28;20433;-85
2022/11/09 12:22:28;;;;;;;0.52;0.50;;;15.20;99.90;;;;;;5027968;28;20045;-84
2022/11/09 12:25:21;;;;;;;1.42;0.50;;;15.50;99.90;;;;;;5002283;28;20064;-85
2022/11/09 12:28:26;;;;;;;2.10;0.77;;;15.40;99.90;;;;;;5015808;28;20056;-85
2022/11/09 12:30:58;;;;;;;1.38;0.88;;;15.50;99.90;;;;;;5034609;28;20144;-85
2022/11/09 12:33:41;;;;;;;2.20;0.80;;;15.60;99.90;;;;;;5038437;28;20377;-85
2022/11/09 12:36:16;;;;;;;1.58;0.60;;;15.50;99.90;;;;;;5035396;28;20068;-85
2022/11/09 12:39:20;;;;;;;2.92;0.68;;;15.40;99.90;;;;;;4997572;28;20053;-86
2022/11/09 12:41:47;;;;;;;;;;;15.50;99.90;;;;;;4990098;28;20156;-85
2022/11/09 12:44:28;;;;;;;0.57;0.40;;;15.60;99.90;;;;;;5020311;28;20395;-86
2022/11/09 12:46:59;;;;;;;1.25;0.80;;;15.90;99.90;;;;;;5023878;28;20038;-84
2022/11/09 12:49:35;;;;;;;1.48;0.88;;;16.10;99.90;;;;;;5014762;28;20045;-85
2022/11/09 12:52:06;;;;;;;1.58;1.00;;;16.30;99.90;;;;;;5005782;28;20055;-84
2022/11/09 12:54:38;;;;;;;2.28;1.02;;;16.40;99.90;;;;;;5004643;28;20048;-84
2022/11/09 12:57:07;;;;;;;2.50;0.82;;;16.70;99.90;;;;;;5009244;28;20484;-84
2022/11/09 12:59:36;;;;;;;1.23;0.57;;;16.50;99.90;;;;;;4997652;28;20359;-88
2022/11/09 13:02:03;;;;;;;3.03;0.90;;;16.40;99.90;;;;;;4993524;28;20050;-84
2022/11/09 13:04:31;;;;;;;2.25;0.75;;;16.30;99.90;;;;;;5002119;28;20103;-84